CSN6929 ZGHA-ZYHB
Flight info
| Callsign | CSN6929 |
|---|---|
| Flight time | N/A |
| Altitude | 39100 |
| Route | GUD9X GUDRO W56 LEBUN/K0850S1160 W56 NUDKU/K0843S1190 W56 VYK G212 SOTMU/K0857S1160 B339 HUR/K0856S1190 B334 TGO G212 RUSBO W203 PIGAM PIG29A |
| Aircraft | A20N/M-SDE2E3FGHIRWXY/LB1 |
Departure
| Time | 2026-05-07 08:42 |
|---|---|
| Airport | Changsha Huanghua International Airport (ZGHA) |
Arrival
| Time | N/A |
|---|---|
| Airport | Harbin Taiping International Airport (ZYHB) |
| Time | Latitude | Longitude | Altitude | Speed | Heading |
|---|---|---|---|---|---|
| 2026-05-07 08:22 | 28.18655 | 113.21551 | 226 ft | 0 kts | 356° |
| 2026-05-07 08:29 | 28.18641 | 113.21551 | 226 ft | 2 kts | 356° |
| 2026-05-07 08:29 | 28.18626 | 113.21552 | 226 ft | 2 kts | 356° |
| 2026-05-07 08:29 | 28.18611 | 113.21554 | 226 ft | 2 kts | 356° |
| 2026-05-07 08:29 | 28.18596 | 113.21555 | 226 ft | 2 kts | 12° |
| 2026-05-07 08:30 | 28.18583 | 113.21546 | 226 ft | 2 kts | 49° |
| 2026-05-07 08:30 | 28.18576 | 113.21532 | 226 ft | 1 kts | 81° |
| 2026-05-07 08:30 | 28.18576 | 113.21526 | 226 ft | 1 kts | 92° |
| 2026-05-07 08:30 | 28.18576 | 113.21522 | 226 ft | 0 kts | 87° |
| 2026-05-07 08:34 | 28.18576 | 113.21523 | 226 ft | 0 kts | 87° |
| 2026-05-07 08:34 | 28.18576 | 113.21524 | 226 ft | 0 kts | 87° |
| 2026-05-07 08:35 | 28.18577 | 113.21550 | 226 ft | 8 kts | 86° |
| 2026-05-07 08:35 | 28.18582 | 113.21648 | 226 ft | 14 kts | 86° |
| 2026-05-07 08:36 | 28.18586 | 113.21754 | 226 ft | 10 kts | 89° |
| 2026-05-07 08:36 | 28.18543 | 113.21811 | 226 ft | 11 kts | 172° |
| 2026-05-07 08:36 | 28.18436 | 113.21819 | 226 ft | 18 kts | 176° |
| 2026-05-07 08:36 | 28.18303 | 113.21827 | 226 ft | 19 kts | 176° |
| 2026-05-07 08:37 | 28.18172 | 113.21835 | 226 ft | 19 kts | 176° |
| 2026-05-07 08:37 | 28.18036 | 113.21843 | 226 ft | 19 kts | 177° |
| 2026-05-07 08:37 | 28.17903 | 113.21851 | 226 ft | 19 kts | 176° |
| 2026-05-07 08:37 | 28.17781 | 113.21863 | 226 ft | 14 kts | 162° |
| 2026-05-07 08:38 | 28.17741 | 113.21933 | 226 ft | 6 kts | 86° |
| 2026-05-07 08:38 | 28.17742 | 113.21941 | 226 ft | 0 kts | 88° |
| 2026-05-07 08:39 | 28.17742 | 113.21947 | 226 ft | 2 kts | 87° |
| 2026-05-07 08:39 | 28.17745 | 113.21992 | 226 ft | 8 kts | 77° |
| 2026-05-07 08:39 | 28.17786 | 113.22043 | 226 ft | 9 kts | 12° |
| 2026-05-07 08:39 | 28.17817 | 113.22045 | 226 ft | 0 kts | 357° |
| 2026-05-07 08:41 | 28.17836 | 113.22044 | 226 ft | 11 kts | 356° |
| 2026-05-07 08:41 | 28.18152 | 113.22025 | 226 ft | 82 kts | 356° |
| 2026-05-07 08:41 | 28.18941 | 113.21976 | 227 ft | 142 kts | 357° |
| 2026-05-07 08:41 | 28.20052 | 113.21904 | 414 ft | 172 kts | 356° |
| 2026-05-07 08:42 | 28.21288 | 113.21827 | 982 ft | 182 kts | 357° |
| 2026-05-07 08:42 | 28.22460 | 113.21763 | 1980 ft | 170 kts | 358° |
| 2026-05-07 08:42 | 28.23606 | 113.21696 | 2652 ft | 174 kts | 359° |
| 2026-05-07 08:42 | 28.24853 | 113.21625 | 3060 ft | 190 kts | 360° |
| 2026-05-07 08:43 | 28.26131 | 113.21554 | 3541 ft | 201 kts | 359° |